createdAt,value
2017-07-22T00:00:22.432Z,9.60
2017-07-22T00:02:48.851Z,9.47
2017-07-22T00:05:15.256Z,9.13
2017-07-22T00:07:41.663Z,9.23
2017-07-22T00:10:08.064Z,11.03
2017-07-22T00:12:35.195Z,9.50
2017-07-22T00:15:01.617Z,9.80
2017-07-22T00:17:28.031Z,8.87
2017-07-22T00:19:54.415Z,9.63
2017-07-22T00:22:21.565Z,9.73
2017-07-22T00:24:47.980Z,9.17
2017-07-22T00:27:14.388Z,9.97
2017-07-22T00:29:40.806Z,10.83
2017-07-22T00:32:07.193Z,10.93
2017-07-22T00:34:34.356Z,9.60
2017-07-22T00:37:01.498Z,10.30
2017-07-22T00:39:27.919Z,9.73
2017-07-22T00:41:54.392Z,10.30
2017-07-22T00:44:20.795Z,10.17
2017-07-22T00:46:47.190Z,10.87
2017-07-22T00:49:13.617Z,10.10
2017-07-22T00:51:40.035Z,10.00
2017-07-22T00:54:06.430Z,10.83
2017-07-22T00:56:33.597Z,9.70
2017-07-22T00:59:00.325Z,10.00
2017-07-22T01:01:27.446Z,10.87
2017-07-22T01:03:53.841Z,10.27
2017-07-22T01:06:20.265Z,10.10
2017-07-22T01:08:46.655Z,9.90
2017-07-22T01:11:13.063Z,8.60
2017-07-22T01:13:39.471Z,9.00
2017-07-22T01:16:05.869Z,9.60
2017-07-22T01:18:32.282Z,9.53
2017-07-22T01:20:58.659Z,9.50
2017-07-22T01:23:25.056Z,10.40
2017-07-22T01:25:52.176Z,10.20
2017-07-22T01:28:18.581Z,9.83
2017-07-22T01:30:45.018Z,10.37
2017-07-22T01:33:11.411Z,9.83
2017-07-22T01:35:38.562Z,10.10
2017-07-22T01:38:05.721Z,9.73
2017-07-22T01:40:32.147Z,9.13
2017-07-22T01:42:58.604Z,10.47
2017-07-22T01:45:25.012Z,8.70
2017-07-22T01:47:52.268Z,10.80
2017-07-22T01:50:19.437Z,9.83
2017-07-22T01:52:45.872Z,9.60
2017-07-22T01:55:12.334Z,11.60
2017-07-22T01:57:38.806Z,10.27
2017-07-22T02:00:05.200Z,11.60
2017-07-22T02:02:31.676Z,12.63
2017-07-22T02:04:58.832Z,11.80
2017-07-22T02:07:26.365Z,11.07
2017-07-22T02:09:52.790Z,11.10
2017-07-22T02:12:19.219Z,11.77
2017-07-22T02:14:45.642Z,10.00
2017-07-22T02:17:12.041Z,11.50
2017-07-22T02:19:38.453Z,12.00
2017-07-22T02:22:05.593Z,11.90
2017-07-22T02:24:32.745Z,11.03
2017-07-22T02:26:59.896Z,11.30
2017-07-22T02:29:27.044Z,11.67
2017-07-22T02:31:54.211Z,12.97
2017-07-22T02:34:20.606Z,11.53
2017-07-22T02:36:46.996Z,12.10
2017-07-22T02:39:13.420Z,11.20
2017-07-22T02:41:39.819Z,12.43
2017-07-22T02:44:06.216Z,11.97
2017-07-22T02:46:32.617Z,12.47
2017-07-22T02:48:59.023Z,12.90
2017-07-22T02:51:26.204Z,12.83
2017-07-22T02:53:52.609Z,13.63
2017-07-22T02:56:19.762Z,12.10
2017-07-22T02:58:46.922Z,12.47
2017-07-22T03:01:14.089Z,12.83
2017-07-22T03:03:40.518Z,11.93
2017-07-22T03:06:06.954Z,12.40
2017-07-22T03:08:33.361Z,11.73
2017-07-22T03:11:00.501Z,14.27
2017-07-22T03:13:26.921Z,13.47
2017-07-22T03:15:53.337Z,13.57
2017-07-22T03:18:19.733Z,12.87
2017-07-22T03:20:46.165Z,10.47
2017-07-22T03:23:12.549Z,11.00
2017-07-22T03:25:38.963Z,11.50
2017-07-22T03:28:05.372Z,11.03
2017-07-22T03:30:31.799Z,11.40
2017-07-22T03:32:58.184Z,12.33
2017-07-22T03:35:24.598Z,11.70
2017-07-22T03:37:50.997Z,13.03
2017-07-22T03:40:17.391Z,13.60
2017-07-22T03:42:44.554Z,12.57
2017-07-22T03:45:10.984Z,12.00
2017-07-22T03:47:38.127Z,12.53
2017-07-22T03:50:05.311Z,12.90
2017-07-22T03:52:31.724Z,13.80
2017-07-22T03:54:58.139Z,12.70
2017-07-22T03:57:24.625Z,14.37
2017-07-22T03:59:51.008Z,13.57
2017-07-22T04:02:18.198Z,13.73
2017-07-22T04:04:44.609Z,13.10
2017-07-22T04:07:11.029Z,13.73
2017-07-22T04:09:38.173Z,14.13
2017-07-22T04:12:05.349Z,13.43
2017-07-22T04:14:31.732Z,13.90
2017-07-22T04:16:58.121Z,13.67
2017-07-22T04:19:24.517Z,11.70
2017-07-22T04:21:50.953Z,12.57
2017-07-22T04:24:18.148Z,11.30
2017-07-22T04:26:44.543Z,13.10
2017-07-22T04:29:10.979Z,13.53
2017-07-22T04:31:38.117Z,12.17
2017-07-22T04:34:04.512Z,11.17
2017-07-22T04:36:30.914Z,11.40
2017-07-22T04:38:57.329Z,11.33
2017-07-22T04:41:24.473Z,12.20
2017-07-22T04:43:51.635Z,12.53
2017-07-22T04:46:18.777Z,12.17
2017-07-22T04:48:45.897Z,12.07
2017-07-22T04:51:12.311Z,10.67
2017-07-22T04:53:38.769Z,11.20
2017-07-22T04:56:05.213Z,10.47
2017-07-22T04:58:31.618Z,12.60
2017-07-22T05:00:58.101Z,11.90
2017-07-22T05:06:01.362Z,10.87
2017-07-22T05:08:27.765Z,11.20
2017-07-22T05:10:54.175Z,12.27
2017-07-22T05:13:21.320Z,10.40
2017-07-22T05:15:48.514Z,10.17
2017-07-22T05:18:14.958Z,11.23
2017-07-22T05:20:41.360Z,11.20
2017-07-22T05:23:07.777Z,10.40
2017-07-22T05:25:34.172Z,10.00
2017-07-22T05:28:00.588Z,10.83
2017-07-22T05:30:27.051Z,9.23
2017-07-22T05:32:53.454Z,9.27
2017-07-22T05:35:19.851Z,9.63
2017-07-22T05:37:46.266Z,10.30
2017-07-22T05:40:13.412Z,10.13
2017-07-22T05:42:40.584Z,9.50
2017-07-22T05:45:06.988Z,9.20
2017-07-22T05:47:33.386Z,9.10
2017-07-22T05:49:59.798Z,8.93
2017-07-22T05:52:26.218Z,8.30
2017-07-22T05:54:52.618Z,8.47
2017-07-22T05:57:19.025Z,8.80
2017-07-22T05:59:45.439Z,8.80
2017-07-22T06:02:11.863Z,8.67
2017-07-22T06:04:38.283Z,8.00
2017-07-22T06:07:04.713Z,7.80
2017-07-22T06:09:31.107Z,7.47
2017-07-22T06:11:57.572Z,7.67
2017-07-22T06:14:23.989Z,7.70
2017-07-22T06:16:50.413Z,7.27
2017-07-22T06:19:16.811Z,6.43
2017-07-22T06:21:43.193Z,6.70
2017-07-22T06:24:10.345Z,6.77
2017-07-22T06:26:37.502Z,6.77
2017-07-22T06:29:03.889Z,7.20
2017-07-22T06:31:30.302Z,7.33
2017-07-22T06:33:56.712Z,6.70
2017-07-22T06:36:23.110Z,6.53
2017-07-22T06:38:50.259Z,6.20
2017-07-22T06:41:16.658Z,6.63
2017-07-22T06:43:43.076Z,6.40
2017-07-22T06:46:09.492Z,6.40
2017-07-22T06:48:35.894Z,6.03
2017-07-22T06:51:02.313Z,6.50
2017-07-22T06:53:29.044Z,6.40
2017-07-22T06:55:55.466Z,5.93
2017-07-22T06:58:21.858Z,6.77
2017-07-22T07:00:48.275Z,5.30
2017-07-22T07:03:15.446Z,6.30
2017-07-22T07:05:41.845Z,6.80
2017-07-22T07:08:08.999Z,7.03
2017-07-22T07:10:36.116Z,5.33
2017-07-22T07:13:02.625Z,6.93
2017-07-22T07:15:29.024Z,6.50
2017-07-22T07:17:56.181Z,6.20
2017-07-22T07:20:23.341Z,5.90
2017-07-22T07:22:49.732Z,5.80
2017-07-22T07:25:17.641Z,6.70
2017-07-22T07:27:44.080Z,6.63
2017-07-22T07:30:10.481Z,6.37
2017-07-22T07:32:37.652Z,5.20
2017-07-22T07:35:04.050Z,6.03
2017-07-22T07:37:30.456Z,6.10
2017-07-22T07:39:56.855Z,6.60
2017-07-22T07:42:23.245Z,6.50
2017-07-22T07:44:49.658Z,6.53
2017-07-22T07:47:30.989Z,6.17
2017-07-22T07:49:57.413Z,5.77
2017-07-22T07:52:24.552Z,6.63
2017-07-22T07:54:51.692Z,6.47
2017-07-22T07:57:18.101Z,6.33
2017-07-22T07:59:44.514Z,6.40
2017-07-22T08:02:10.946Z,6.13
2017-07-22T08:04:37.375Z,6.17
2017-07-22T08:07:03.913Z,6.27
2017-07-22T08:09:30.339Z,6.33
2017-07-22T08:11:56.739Z,6.27
2017-07-22T08:14:23.139Z,5.50
2017-07-22T08:16:49.733Z,5.77
2017-07-22T08:19:16.304Z,6.10
2017-07-22T08:21:42.768Z,5.43
2017-07-22T08:24:09.186Z,5.57
2017-07-22T08:26:35.594Z,5.80
2017-07-22T08:29:02.031Z,6.13
2017-07-22T08:31:28.447Z,5.40
2017-07-22T08:33:54.876Z,5.30
2017-07-22T08:36:21.294Z,5.53
2017-07-22T08:38:48.445Z,6.90
2017-07-22T08:41:15.584Z,6.00
2017-07-22T08:43:42.764Z,6.03
2017-07-22T08:46:09.138Z,6.57
2017-07-22T08:48:35.546Z,5.93
2017-07-22T08:51:02.321Z,5.80
2017-07-22T08:53:28.730Z,5.10
2017-07-22T08:55:55.146Z,7.03
2017-07-22T08:58:21.540Z,5.87
2017-07-22T09:00:48.679Z,5.93
2017-07-22T09:03:15.075Z,6.07
2017-07-22T09:05:41.528Z,5.70
2017-07-22T09:08:07.938Z,5.37
2017-07-22T09:10:34.455Z,6.03
2017-07-22T09:13:00.866Z,6.50
2017-07-22T09:15:27.987Z,6.60
2017-07-22T09:17:54.733Z,5.83
2017-07-22T09:20:21.429Z,6.90
2017-07-22T09:22:47.854Z,6.70
2017-07-22T09:25:14.254Z,5.73
2017-07-22T09:27:41.392Z,6.10
2017-07-22T09:30:07.795Z,5.80
2017-07-22T09:32:34.189Z,6.07
2017-07-22T09:35:00.572Z,6.90
2017-07-22T09:37:26.991Z,6.20
2017-07-22T09:39:53.462Z,6.40
2017-07-22T09:42:19.940Z,6.13
2017-07-22T09:44:46.347Z,6.60
2017-07-22T09:47:12.749Z,6.03
2017-07-22T09:49:39.163Z,6.50
2017-07-22T09:52:05.551Z,6.47
2017-07-22T09:54:31.969Z,5.50
2017-07-22T09:56:58.568Z,6.10
2017-07-22T09:59:24.949Z,5.80
2017-07-22T10:01:51.318Z,5.50
2017-07-22T10:04:17.722Z,6.10
2017-07-22T10:06:44.128Z,5.97
2017-07-22T10:09:11.293Z,5.67
2017-07-22T10:11:37.683Z,6.50
2017-07-22T10:14:04.341Z,6.00
2017-07-22T10:16:30.832Z,6.57
2017-07-22T10:18:57.252Z,6.40
2017-07-22T10:21:23.782Z,6.93
2017-07-22T10:23:50.264Z,6.30
2017-07-22T10:26:16.679Z,6.40
2017-07-22T10:28:50.193Z,6.20
2017-07-22T10:31:16.598Z,6.60
2017-07-22T10:33:43.002Z,7.50
2017-07-22T10:36:09.425Z,7.10
2017-07-22T10:38:35.999Z,5.50
2017-07-22T10:41:02.468Z,5.73
2017-07-22T10:43:28.905Z,5.40
2017-07-22T10:45:56.059Z,6.17
2017-07-22T10:48:22.455Z,6.70
2017-07-22T10:50:48.875Z,6.30
2017-07-22T10:53:15.284Z,6.70
2017-07-22T10:55:42.426Z,6.63
2017-07-22T10:58:08.848Z,5.80
2017-07-22T11:00:35.228Z,6.97
2017-07-22T11:03:01.619Z,6.07
2017-07-22T11:05:28.769Z,6.27
2017-07-22T11:07:55.189Z,6.13
2017-07-22T11:10:21.584Z,5.73
2017-07-22T11:12:48.013Z,5.87
2017-07-22T11:15:14.404Z,5.60
2017-07-22T11:17:41.614Z,5.53
2017-07-22T11:20:08.905Z,6.10
2017-07-22T11:22:35.293Z,5.10
2017-07-22T11:25:01.709Z,5.93
2017-07-22T11:27:28.135Z,5.70
2017-07-22T11:29:54.521Z,7.10
2017-07-22T11:32:20.938Z,5.50
2017-07-22T11:34:47.411Z,5.57
2017-07-22T11:37:13.813Z,5.50
2017-07-22T11:39:40.196Z,4.93
2017-07-22T11:42:06.590Z,5.17
2017-07-22T11:44:32.975Z,4.40
2017-07-22T11:46:59.361Z,4.33
2017-07-22T11:49:26.522Z,4.63
2017-07-22T11:51:52.983Z,4.73
2017-07-22T11:54:19.398Z,4.50
2017-07-22T11:56:45.803Z,3.90
2017-07-22T11:59:12.207Z,4.20
2017-07-22T12:01:38.606Z,4.70
2017-07-22T12:04:04.996Z,4.60
2017-07-22T12:06:31.399Z,4.90
2017-07-22T12:08:58.060Z,4.37
2017-07-22T12:11:24.464Z,4.20
2017-07-22T12:13:50.876Z,4.13
2017-07-22T12:16:17.255Z,4.07
2017-07-22T12:18:43.712Z,3.67
2017-07-22T12:21:10.121Z,4.30
2017-07-22T12:23:36.524Z,4.47
2017-07-22T12:26:02.897Z,4.53
2017-07-22T12:28:29.305Z,4.33
2017-07-22T12:30:55.745Z,4.03
2017-07-22T12:33:22.120Z,3.80
2017-07-22T13:24:01.143Z,5.47
2017-07-22T13:26:27.557Z,4.67
2017-07-22T13:28:54.134Z,4.33
2017-07-22T13:31:21.361Z,4.30
2017-07-22T13:33:47.760Z,3.90
2017-07-22T13:36:14.212Z,3.90
2017-07-22T13:38:40.626Z,4.10
2017-07-22T13:41:07.024Z,3.90
2017-07-22T13:43:33.440Z,4.03
2017-07-22T13:45:59.837Z,4.60
2017-07-22T13:48:26.257Z,4.37
2017-07-22T13:50:52.693Z,3.90
2017-07-22T13:53:19.115Z,4.63
2017-07-22T13:55:45.497Z,3.90
2017-07-22T13:58:11.900Z,4.57
2017-07-22T14:00:38.315Z,4.60
2017-07-22T14:03:04.711Z,4.53
2017-07-22T14:05:31.842Z,5.27
2017-07-22T14:07:58.253Z,4.30
2017-07-22T14:10:24.655Z,4.67
2017-07-22T14:12:51.049Z,4.80
2017-07-22T14:15:17.448Z,4.20
2017-07-22T14:17:43.847Z,4.80
2017-07-22T14:20:10.249Z,4.50
2017-07-22T14:22:36.660Z,4.70
2017-07-22T14:25:03.943Z,4.40
2017-07-22T14:27:30.366Z,4.47
2017-07-22T14:29:56.811Z,4.13
2017-07-22T14:32:23.220Z,4.10
2017-07-22T14:34:49.621Z,4.00
2017-07-22T14:37:16.037Z,4.20
2017-07-22T14:39:42.442Z,3.83
2017-07-22T14:42:09.594Z,3.63
2017-07-22T14:44:36.747Z,3.80
2017-07-22T14:47:03.872Z,3.60
2017-07-22T14:49:30.288Z,3.00
2017-07-22T14:51:56.697Z,3.20
2017-07-22T14:54:23.109Z,3.03
2017-07-22T14:56:50.520Z,3.70
2017-07-22T14:59:16.900Z,3.60
2017-07-22T15:01:43.322Z,4.27
2017-07-22T15:04:10.480Z,3.70
2017-07-22T15:06:36.873Z,3.40
2017-07-22T15:09:03.313Z,3.33
2017-07-22T15:11:29.746Z,3.50
2017-07-22T15:13:56.291Z,3.30
2017-07-22T15:16:23.417Z,3.57
2017-07-22T15:18:49.837Z,3.07
2017-07-22T15:21:16.238Z,3.10
2017-07-22T15:23:42.636Z,3.00
2017-07-22T15:26:09.020Z,3.77
2017-07-22T15:28:35.440Z,3.13
2017-07-22T15:31:01.844Z,3.03
2017-07-22T15:33:28.277Z,2.93
2017-07-22T15:35:55.421Z,3.57
2017-07-22T15:38:22.567Z,3.50
2017-07-22T15:40:48.975Z,3.10
2017-07-22T15:43:15.473Z,3.40
2017-07-22T15:45:41.872Z,2.60
2017-07-22T15:48:09.044Z,2.90
2017-07-22T15:50:35.500Z,2.97
2017-07-22T15:53:01.926Z,2.50
2017-07-22T15:55:28.329Z,3.20
2017-07-22T15:57:55.477Z,2.13
2017-07-22T16:00:22.647Z,2.80
2017-07-22T16:02:49.038Z,2.40
2017-07-22T16:05:15.464Z,2.80
2017-07-22T16:07:41.876Z,3.13
2017-07-22T16:10:08.284Z,4.17
2017-07-22T16:12:34.685Z,2.93
2017-07-22T16:15:01.830Z,2.93
2017-07-22T16:17:28.226Z,3.37
2017-07-22T16:19:54.636Z,3.20
2017-07-22T16:22:21.021Z,3.20
2017-07-22T16:24:47.428Z,2.73
2017-07-22T16:27:13.824Z,3.10
2017-07-22T16:29:40.222Z,2.87
2017-07-22T16:32:06.642Z,3.27
2017-07-22T16:34:33.065Z,2.80
2017-07-22T16:36:59.496Z,3.03
2017-07-22T16:39:25.907Z,3.20
2017-07-22T16:41:52.307Z,2.87
2017-07-22T16:44:33.693Z,3.30
2017-07-22T16:47:00.836Z,3.30
2017-07-22T16:49:27.960Z,3.20
2017-07-22T16:51:54.379Z,3.20
2017-07-22T16:54:20.789Z,2.90
2017-07-22T16:56:47.198Z,3.33
2017-07-22T16:59:13.606Z,3.07
2017-07-22T17:01:40.729Z,3.27
2017-07-22T17:04:07.125Z,3.20
2017-07-22T17:06:33.529Z,3.63
2017-07-22T17:09:00.678Z,3.03
2017-07-22T17:11:27.797Z,4.33
2017-07-22T17:13:54.217Z,3.30
2017-07-22T17:16:20.653Z,3.00
2017-07-22T17:18:47.066Z,3.20
2017-07-22T17:21:13.452Z,3.77
2017-07-22T17:23:39.857Z,3.90
2017-07-22T17:26:06.250Z,4.17
2017-07-22T17:28:32.657Z,3.83
2017-07-22T17:30:59.800Z,3.33
2017-07-22T17:33:26.935Z,3.70
2017-07-22T17:35:53.330Z,3.47
2017-07-22T17:38:19.803Z,4.37
2017-07-22T17:40:46.208Z,3.93
2017-07-22T17:43:12.660Z,3.07
2017-07-22T17:45:39.054Z,4.33
2017-07-22T17:48:05.429Z,3.47
2017-07-22T17:50:31.895Z,3.57
2017-07-22T17:52:59.056Z,4.00
2017-07-22T17:55:25.455Z,4.13
2017-07-22T17:57:52.306Z,4.57
2017-07-22T18:00:18.720Z,4.30
2017-07-22T18:02:45.106Z,4.47
2017-07-22T18:05:11.508Z,4.50
2017-07-22T18:07:37.909Z,3.83
2017-07-22T18:10:04.308Z,4.13
2017-07-22T18:12:30.715Z,4.27
2017-07-22T18:14:57.852Z,4.30
2017-07-22T18:17:24.254Z,4.50
2017-07-22T18:19:50.662Z,4.70
2017-07-22T18:22:17.083Z,4.27
2017-07-22T18:24:43.486Z,4.20
2017-07-22T18:27:09.885Z,4.63
2017-07-22T18:29:36.297Z,5.17
2017-07-22T18:32:03.086Z,6.30
2017-07-22T18:34:29.500Z,4.50
2017-07-22T18:36:55.905Z,4.50
2017-07-22T18:39:22.325Z,4.50
2017-07-22T18:41:48.733Z,4.50
2017-07-22T18:44:15.886Z,5.00
2017-07-22T18:46:43.004Z,4.40
2017-07-22T18:49:09.441Z,5.07
2017-07-22T18:51:35.825Z,4.10
2017-07-22T18:54:02.223Z,4.50
2017-07-22T18:56:29.391Z,4.80
2017-07-22T18:58:55.817Z,5.00
2017-07-22T19:01:22.969Z,4.50
2017-07-22T19:03:50.125Z,4.50
2017-07-22T19:06:17.285Z,4.90
2017-07-22T19:08:43.686Z,5.43
2017-07-22T19:11:10.108Z,6.00
2017-07-22T19:13:36.541Z,5.70
2017-07-22T19:16:02.950Z,5.07
2017-07-22T19:18:29.398Z,5.87
2017-07-22T19:20:55.803Z,6.40
2017-07-22T19:23:22.181Z,5.53
2017-07-22T19:25:48.557Z,5.90
2017-07-22T19:28:14.979Z,6.47
2017-07-22T19:30:41.412Z,7.20
2017-07-22T19:33:07.812Z,10.00
2017-07-22T19:35:39.994Z,10.30
2017-07-22T19:38:12.185Z,14.13
2017-07-22T19:40:38.567Z,13.10
2017-07-22T19:43:04.978Z,12.27
2017-07-22T19:45:31.371Z,11.13
2017-07-22T19:47:57.818Z,8.70
2017-07-22T19:50:24.292Z,8.03
2017-07-22T19:52:50.690Z,6.43
2017-07-22T19:55:17.093Z,5.83
2017-07-22T19:57:44.268Z,6.10
2017-07-22T20:00:10.666Z,5.90
2017-07-22T20:02:37.807Z,5.00
2017-07-22T20:05:04.260Z,5.50
2017-07-22T20:07:30.751Z,4.90
2017-07-22T20:09:57.176Z,5.90
2017-07-22T20:12:23.630Z,6.20
2017-07-22T20:14:50.070Z,5.67
2017-07-22T20:17:16.479Z,5.77
2017-07-22T20:19:42.881Z,5.30
2017-07-22T20:22:09.282Z,6.23
2017-07-22T20:24:36.493Z,5.57
2017-07-22T20:27:02.892Z,5.60
2017-07-22T20:29:29.295Z,7.60
2017-07-22T20:31:55.744Z,6.43
2017-07-22T20:34:22.177Z,6.87
2017-07-22T20:36:49.332Z,6.60
2017-07-22T20:39:16.479Z,6.37
2017-07-22T20:41:43.618Z,6.77
2017-07-22T20:44:10.086Z,7.00
2017-07-22T20:46:36.507Z,6.37
2017-07-22T20:49:02.956Z,7.40
2017-07-22T20:51:29.391Z,7.13
2017-07-22T20:53:55.796Z,6.70
2017-07-22T20:56:22.979Z,8.03
2017-07-22T20:58:49.365Z,7.80
2017-07-22T21:01:15.858Z,7.60
2017-07-22T21:03:42.267Z,6.77
2017-07-22T21:06:08.708Z,6.57
2017-07-22T21:08:35.101Z,6.57
2017-07-22T21:11:01.475Z,6.93
2017-07-22T21:13:27.907Z,6.63
2017-07-22T21:15:54.285Z,7.00
2017-07-22T21:18:20.665Z,8.00
2017-07-22T21:20:47.093Z,7.40
2017-07-22T21:23:13.525Z,6.80
2017-07-22T21:25:39.957Z,6.20
2017-07-22T21:28:06.358Z,8.20
2017-07-22T21:30:32.776Z,7.70
2017-07-22T21:32:59.168Z,6.93
2017-07-22T21:35:25.602Z,7.90
2017-07-22T21:37:52.388Z,6.77
2017-07-22T21:40:18.809Z,6.80
2017-07-22T21:42:45.212Z,6.80
2017-07-22T21:45:11.605Z,7.23
2017-07-22T21:47:39.509Z,8.60
2017-07-22T21:50:06.112Z,9.70
2017-07-22T21:52:33.259Z,11.13
2017-07-22T21:55:00.431Z,10.47
2017-07-22T21:57:26.814Z,9.87
2017-07-22T21:59:53.228Z,8.47
2017-07-22T22:02:19.656Z,9.80
2017-07-22T22:04:46.116Z,10.27
2017-07-22T22:07:12.501Z,9.03
2017-07-22T22:09:38.952Z,9.80
2017-07-22T22:12:05.347Z,9.50
2017-07-22T22:14:31.735Z,8.93
2017-07-22T22:16:58.160Z,8.70
2017-07-22T22:19:24.566Z,9.33
2017-07-22T22:21:50.968Z,10.63
2017-07-22T22:24:18.125Z,10.30
2017-07-22T22:26:44.548Z,9.30
2017-07-22T22:29:11.695Z,10.10
2017-07-22T22:31:38.847Z,8.80
2017-07-22T22:34:05.996Z,9.73
2017-07-22T22:36:32.469Z,9.70
2017-07-22T22:38:58.880Z,8.87
2017-07-22T22:41:26.036Z,8.57
2017-07-22T22:43:52.470Z,8.27
2017-07-22T22:46:19.597Z,8.80
2017-07-22T22:48:46.746Z,8.93
2017-07-22T22:51:13.134Z,8.27
2017-07-22T22:53:39.542Z,9.53
2017-07-22T22:56:05.938Z,8.63
2017-07-22T22:58:32.356Z,9.07
2017-07-22T23:00:58.744Z,8.87
2017-07-22T23:03:25.142Z,7.87
2017-07-22T23:05:52.300Z,9.37
2017-07-22T23:08:19.460Z,8.80
2017-07-22T23:10:46.586Z,8.47
2017-07-22T23:13:13.012Z,8.40
2017-07-22T23:15:39.419Z,10.27
2017-07-22T23:18:05.850Z,8.93
2017-07-22T23:20:32.228Z,9.00
2017-07-22T23:22:59.399Z,8.20
2017-07-22T23:25:25.832Z,9.27
2017-07-22T23:27:52.221Z,10.20
2017-07-22T23:30:18.623Z,9.87
2017-07-22T23:32:45.068Z,9.63
2017-07-22T23:35:11.470Z,9.40
2017-07-22T23:37:37.858Z,9.50
2017-07-22T23:40:04.266Z,9.63
2017-07-22T23:42:30.663Z,8.20
2017-07-22T23:44:57.081Z,9.17
2017-07-22T23:47:23.480Z,8.60
2017-07-22T23:49:49.878Z,8.77
2017-07-22T23:52:16.296Z,9.10
2017-07-22T23:54:42.695Z,8.90
2017-07-22T23:57:09.079Z,9.80
2017-07-22T23:59:35.483Z,10.17
